< < Back
Terminal Aerodrome Forecast


Current Version              Previous Versions:   1  2  3  4  5  6  7  8  9  

Terminal Aerodrome Forecast

699
FTUS42 KGSP 251120
TAFCLT
TAF
KCLT 251120Z 2512/2612 18004KT P6SM FEW060 BKN250
      TEMPO 2515/2517 SCT035
     FM251800 18008KT P6SM SCT060 BKN250
     FM252300 16008KT P6SM BKN060
     FM260400 15009KT P6SM BKN015
     FM260600 16009KT P6SM BKN008=



Latest METAR

094
SAUS70 KWBC 260300 RRA
MTRCLT
METAR KCLT 260252Z 16006KT 10SM FEW250 23/16 A3026 RMK AO2 SLP238
T02280156 53004 $


USA.gov is the U.S. government's official web portal to all federal, state and local government web resources and services.